Time;durP1;ratioP1;P1;durP2;ratioP2;P2;SDS_P1;SDS_P2;PMS_P1;PMS_P2;Temp;Humidity;BMP_temperature;BMP_pressure;BME280_temperature;BME280_humidity;BME280_pressure;Samples;Min_cycle;Max_cycle;Signal;HPM_P1;HPM_P2
2022/07/12 00:02:02;;;;;;;2.50;2.03;;;16.80;99.90;;;;;;5109519;27;20456;-74
2022/07/12 00:04:40;;;;;;;1.90;1.77;;;16.80;99.90;;;;;;5101372;27;21547;-74
2022/07/12 00:07:06;;;;;;;1.43;1.33;;;16.80;99.90;;;;;;5106738;27;21043;-74
2022/07/12 00:09:38;;;;;;;2.00;1.80;;;16.70;99.90;;;;;;5111180;27;20843;-74
2022/07/12 00:12:07;;;;;;;1.80;1.70;;;16.60;99.90;;;;;;5112789;27;20828;-75
2022/07/12 00:14:38;;;;;;;5.13;2.07;;;16.60;99.90;;;;;;5112911;27;20562;-74
2022/07/12 00:17:07;;;;;;;1.80;1.57;;;16.50;99.90;;;;;;5110381;27;20580;-75
2022/07/12 00:19:34;;;;;;;2.27;2.10;;;16.50;99.90;;;;;;5105291;27;20456;-75
2022/07/12 00:22:02;;;;;;;1.80;1.70;;;16.50;99.90;;;;;;5107598;27;20462;-75
2022/07/12 00:24:33;;;;;;;2.10;1.90;;;16.50;99.90;;;;;;5106991;27;20580;-74
2022/07/12 00:27:11;;;;;;;4.80;2.70;;;16.50;99.90;;;;;;5109912;27;20485;-75
2022/07/12 00:29:44;;;;;;;1.73;1.63;;;16.30;99.90;;;;;;5104214;27;20465;-74
2022/07/12 00:32:21;;;;;;;2.27;1.30;;;16.20;99.90;;;;;;5112610;27;20477;-75
2022/07/12 00:34:50;;;;;;;2.07;1.70;;;16.20;99.90;;;;;;5107709;27;20561;-74
2022/07/12 00:37:24;;;;;;;2.23;1.60;;;16.30;99.90;;;;;;5106194;27;21017;-74
2022/07/12 00:39:54;;;;;;;1.70;1.60;;;16.40;99.90;;;;;;5105637;27;20516;-75
2022/07/12 00:42:25;;;;;;;1.80;1.70;;;16.40;99.90;;;;;;5111972;27;20976;-75
2022/07/12 00:44:55;;;;;;;1.80;1.70;;;16.30;99.90;;;;;;5104790;27;20468;-75
2022/07/12 00:47:37;;;;;;;1.83;1.73;;;16.40;99.90;;;;;;5109335;27;20543;-75
2022/07/12 00:50:11;;;;;;;2.23;1.60;;;16.40;99.90;;;;;;5108084;27;20457;-75
2022/07/12 00:52:38;;;;;;;2.23;1.57;;;16.40;99.90;;;;;;5108717;27;20485;-75
2022/07/12 00:55:12;;;;;;;2.30;1.70;;;16.40;99.90;;;;;;5110229;27;20477;-74
2022/07/12 00:57:43;;;;;;;1.90;1.70;;;16.20;99.90;;;;;;5103390;27;20456;-74
2022/07/12 01:00:12;;;;;;;1.67;1.40;;;16.10;99.90;;;;;;5109402;27;20449;-75
2022/07/12 01:02:42;;;;;;;1.40;1.20;;;16.00;99.90;;;;;;5100592;27;20450;-74
2022/07/12 01:05:09;;;;;;;2.50;1.30;;;16.00;99.90;;;;;;5111277;27;20593;-75
2022/07/12 01:07:40;;;;;;;2.37;1.60;;;15.90;99.90;;;;;;5108195;27;20615;-74
2022/07/12 01:10:09;;;;;;;1.90;1.40;;;16.00;99.90;;;;;;5113911;27;20457;-75
2022/07/12 01:12:41;;;;;;;1.73;1.43;;;16.00;99.90;;;;;;5111793;27;20498;-75
2022/07/12 01:15:16;;;;;;;1.70;1.30;;;16.00;99.90;;;;;;5110247;27;20779;-74
2022/07/12 01:17:53;;;;;;;1.73;1.63;;;16.00;99.90;;;;;;5102852;27;20544;-74
2022/07/12 01:20:30;;;;;;;1.73;1.40;;;15.90;99.90;;;;;;5110451;27;20901;-74
2022/07/12 01:25:59;;;;;;;2.00;1.80;;;15.80;99.90;;;;;;5069754;22;20492;-69
2022/07/12 01:28:26;;;;;;;2.00;1.50;;;15.80;99.90;;;;;;5031948;28;20463;-69
2022/07/12 01:30:53;;;;;;;1.50;1.40;;;15.90;99.90;;;;;;5031715;28;20456;-69
2022/07/12 01:33:20;;;;;;;1.93;1.47;;;15.90;99.90;;;;;;5038429;28;23447;-69
2022/07/12 01:35:48;;;;;;;2.90;1.40;;;15.80;99.90;;;;;;5033811;28;20491;-72
2022/07/12 01:38:17;;;;;;;1.70;1.60;;;15.70;99.90;;;;;;5034568;28;20952;-71
2022/07/12 01:40:44;;;;;;;4.57;1.43;;;15.60;99.90;;;;;;5035123;28;23183;-70
2022/07/12 01:43:11;;;;;;;1.50;1.23;;;15.60;99.90;;;;;;5033960;28;20442;-70
2022/07/12 01:45:38;;;;;;;2.53;2.33;;;15.50;99.90;;;;;;5031413;28;20483;-68
2022/07/12 01:48:05;;;;;;;2.33;1.70;;;15.50;99.90;;;;;;5036630;28;20434;-71
2022/07/12 01:50:32;;;;;;;1.43;1.27;;;15.50;99.90;;;;;;5026490;28;21644;-70
2022/07/12 01:52:59;;;;;;;2.83;1.83;;;15.50;99.90;;;;;;5028224;28;21013;-71
2022/07/12 01:55:27;;;;;;;2.73;1.80;;;15.40;99.90;;;;;;5031521;28;20482;-70
2022/07/12 01:57:54;;;;;;;2.30;1.37;;;15.50;99.90;;;;;;5033731;28;20885;-71
2022/07/12 02:00:22;;;;;;;2.90;1.87;;;15.60;99.90;;;;;;5029668;28;20474;-71
2022/07/12 02:02:49;;;;;;;2.37;1.50;;;15.60;99.90;;;;;;5032757;28;20451;-71
2022/07/12 02:05:16;;;;;;;2.27;1.83;;;15.60;99.90;;;;;;5032755;28;20475;-67
2022/07/12 02:07:43;;;;;;;1.70;1.30;;;15.60;99.90;;;;;;5025889;28;20464;-70
2022/07/12 02:10:10;;;;;;;2.00;1.50;;;15.60;99.90;;;;;;5028537;28;20480;-70
2022/07/12 02:12:39;;;;;;;1.57;1.47;;;15.50;99.90;;;;;;5039259;28;20483;-70
2022/07/12 02:15:07;;;;;;;3.20;2.13;;;15.50;99.90;;;;;;5039579;28;21357;-72
2022/07/12 02:17:34;;;;;;;1.97;1.77;;;15.50;99.90;;;;;;5032595;28;20463;-70
2022/07/12 02:20:00;;;;;;;2.33;1.60;;;15.50;99.90;;;;;;5038954;28;20833;-70
2022/07/12 02:22:27;;;;;;;1.97;1.50;;;15.40;99.90;;;;;;5042841;28;20431;-70
2022/07/12 02:24:54;;;;;;;4.23;2.53;;;15.50;99.90;;;;;;5036777;28;20489;-71
2022/07/12 02:27:21;;;;;;;3.60;2.67;;;15.50;99.90;;;;;;5031045;28;20469;-70
2022/07/12 02:29:49;;;;;;;2.10;1.80;;;15.50;99.90;;;;;;5037140;28;20446;-70
2022/07/12 02:32:16;;;;;;;1.40;1.30;;;15.50;99.90;;;;;;5035691;28;20509;-71
2022/07/12 02:34:43;;;;;;;1.67;1.57;;;15.40;99.90;;;;;;5038346;28;21114;-70
2022/07/12 02:37:10;;;;;;;5.23;2.33;;;15.40;99.90;;;;;;5039152;28;20430;-71
2022/07/12 02:39:37;;;;;;;1.63;1.40;;;15.30;99.90;;;;;;5039088;28;20478;-71
2022/07/12 02:42:03;;;;;;;2.97;1.90;;;15.30;99.90;;;;;;5033955;28;20438;-70
2022/07/12 02:44:30;;;;;;;2.07;1.53;;;15.30;99.90;;;;;;5033413;28;21574;-70
2022/07/12 02:47:00;;;;;;;2.40;1.60;;;15.30;99.90;;;;;;5029243;28;20460;-70
2022/07/12 02:49:27;;;;;;;1.70;1.33;;;15.20;99.90;;;;;;5035168;28;20459;-71
2022/07/12 02:51:53;;;;;;;2.07;1.77;;;15.00;99.90;;;;;;5034420;28;20455;-71
2022/07/12 02:54:20;;;;;;;4.03;1.33;;;15.00;99.90;;;;;;5038005;28;20450;-70
2022/07/12 02:56:47;;;;;;;4.00;1.40;;;15.00;99.90;;;;;;5031292;28;20841;-71
2022/07/12 02:59:14;;;;;;;1.53;1.40;;;14.90;99.90;;;;;;5030377;28;20547;-70
2022/07/12 03:01:41;;;;;;;2.43;1.60;;;14.90;99.90;;;;;;5035010;28;20504;-69
2022/07/12 03:04:09;;;;;;;1.93;1.83;;;14.80;99.90;;;;;;5033959;28;20522;-70
2022/07/12 03:06:36;;;;;;;2.57;1.80;;;14.80;99.90;;;;;;5023361;28;20850;-70
2022/07/12 03:09:03;;;;;;;2.07;1.87;;;14.70;99.90;;;;;;5038776;28;20463;-70
2022/07/12 03:11:30;;;;;;;1.73;1.30;;;14.70;99.90;;;;;;5036012;28;20464;-69
2022/07/12 03:13:57;;;;;;;3.20;1.63;;;14.70;99.90;;;;;;5034264;28;20483;-70
2022/07/12 03:16:24;;;;;;;2.60;1.80;;;14.60;99.90;;;;;;5026742;28;20488;-69
2022/07/12 03:18:50;;;;;;;1.60;1.50;;;14.60;99.90;;;;;;5028001;28;20434;-70
2022/07/12 03:21:19;;;;;;;6.10;1.77;;;14.60;99.90;;;;;;5031714;28;20466;-69
2022/07/12 03:23:45;;;;;;;3.00;1.63;;;14.60;99.90;;;;;;5034543;28;20456;-70
2022/07/12 03:26:13;;;;;;;15.40;3.07;;;14.70;99.90;;;;;;5037051;28;20488;-70
2022/07/12 03:28:40;;;;;;;15.73;3.40;;;14.60;99.90;;;;;;5032541;28;20431;-70
2022/07/12 03:31:06;;;;;;;5.50;2.40;;;14.60;99.90;;;;;;5035651;28;20969;-70
2022/07/12 03:33:33;;;;;;;4.73;2.30;;;14.60;99.90;;;;;;5039850;28;20476;-70
2022/07/12 03:36:00;;;;;;;14.73;2.17;;;14.60;99.90;;;;;;5045745;28;20455;-70
2022/07/12 03:38:29;;;;;;;5.23;1.83;;;14.60;99.90;;;;;;5038139;28;20431;-70
2022/07/12 03:40:55;;;;;;;8.53;1.60;;;14.60;99.90;;;;;;5036116;28;20492;-70
2022/07/12 03:43:22;;;;;;;9.10;2.03;;;14.60;99.90;;;;;;5039774;28;20513;-70
2022/07/12 03:45:49;;;;;;;3.37;2.03;;;14.60;99.90;;;;;;5032386;28;20479;-70
2022/07/12 03:48:16;;;;;;;7.23;2.07;;;14.50;99.90;;;;;;5026355;28;20471;-70
2022/07/12 03:50:45;;;;;;;5.13;3.17;;;14.50;99.90;;;;;;5031282;28;20736;-69
2022/07/12 03:53:12;;;;;;;25.77;2.33;;;14.40;99.90;;;;;;5024226;28;20481;-71
2022/07/12 03:55:40;;;;;;;9.07;2.23;;;14.30;99.90;;;;;;5038399;28;21385;-70
2022/07/12 03:58:07;;;;;;;6.80;2.50;;;14.30;99.90;;;;;;5037036;28;20455;-70
2022/07/12 04:00:34;;;;;;;8.30;1.93;;;14.30;99.90;;;;;;5036492;28;20460;-70
2022/07/12 04:03:00;;;;;;;3.73;2.63;;;14.40;99.90;;;;;;5035081;28;21237;-70
2022/07/12 04:05:27;;;;;;;9.10;2.00;;;14.50;99.90;;;;;;5036130;28;20454;-70
2022/07/12 04:07:55;;;;;;;3.13;1.60;;;14.50;99.90;;;;;;5041935;28;20446;-70
2022/07/12 04:10:22;;;;;;;3.37;1.77;;;14.60;99.90;;;;;;5037556;28;20458;-70
2022/07/12 04:12:50;;;;;;;4.37;1.83;;;14.70;99.90;;;;;;5035773;28;20464;-70
2022/07/12 04:15:17;;;;;;;3.57;1.47;;;14.70;99.90;;;;;;5035029;28;20472;-70
2022/07/12 04:17:44;;;;;;;2.40;1.53;;;14.80;99.90;;;;;;5035459;28;20487;-69
2022/07/12 04:20:12;;;;;;;2.67;2.30;;;14.80;99.90;;;;;;5028475;28;20463;-70
2022/07/12 04:22:39;;;;;;;4.37;2.30;;;14.80;99.90;;;;;;5026411;28;20474;-70
2022/07/12 04:25:08;;;;;;;4.80;2.43;;;14.90;99.90;;;;;;5026966;28;20481;-70
2022/07/12 04:27:35;;;;;;;3.10;2.07;;;14.90;99.90;;;;;;5038446;28;20773;-70
2022/07/12 04:30:04;;;;;;;2.40;2.03;;;15.00;99.90;;;;;;5037488;28;20974;-71
2022/07/12 04:32:31;;;;;;;3.70;2.20;;;15.00;99.90;;;;;;5024666;28;20518;-71
2022/07/12 04:34:58;;;;;;;2.67;2.30;;;15.10;99.90;;;;;;5030980;28;20567;-70
2022/07/12 04:37:25;;;;;;;4.40;2.70;;;15.10;99.90;;;;;;5031760;28;20465;-71
2022/07/12 04:39:52;;;;;;;5.70;2.40;;;15.20;99.90;;;;;;5033751;28;20458;-70
2022/07/12 04:42:19;;;;;;;2.80;1.90;;;15.20;99.90;;;;;;5032220;28;20562;-70
2022/07/12 04:44:46;;;;;;;5.30;2.13;;;15.30;99.90;;;;;;5026566;28;20987;-70
2022/07/12 04:47:14;;;;;;;3.70;2.17;;;15.40;99.90;;;;;;5034711;28;20460;-70
2022/07/12 04:49:41;;;;;;;2.20;2.00;;;15.50;99.90;;;;;;5042875;28;20550;-70
2022/07/12 04:52:08;;;;;;;3.20;2.60;;;15.60;99.90;;;;;;5041227;28;20467;-70
2022/07/12 04:54:35;;;;;;;3.73;2.70;;;15.80;99.90;;;;;;5039628;28;20985;-70
2022/07/12 04:57:02;;;;;;;3.20;2.17;;;15.90;99.90;;;;;;5035398;28;21122;-70
2022/07/12 04:59:28;;;;;;;6.20;2.17;;;16.00;99.90;;;;;;5040912;28;20458;-70
2022/07/12 05:01:55;;;;;;;3.87;2.63;;;16.10;99.90;;;;;;5040169;28;20488;-70
2022/07/12 05:04:23;;;;;;;3.50;2.60;;;16.30;99.90;;;;;;5037551;28;21003;-70
2022/07/12 05:06:52;;;;;;;3.20;2.90;;;16.50;99.90;;;;;;5040842;28;20461;-71
2022/07/12 05:09:18;;;;;;;2.90;2.60;;;16.60;99.90;;;;;;5036994;28;20456;-71
2022/07/12 05:11:45;;;;;;;4.87;3.43;;;16.80;99.90;;;;;;5042987;28;20505;-69
2022/07/12 05:14:12;;;;;;;6.63;3.40;;;17.00;99.90;;;;;;5036443;28;20486;-70
2022/07/12 05:16:39;;;;;;;3.40;3.10;;;17.20;99.90;;;;;;5039658;28;20476;-70
2022/07/12 05:19:06;;;;;;;6.27;3.90;;;17.30;99.90;;;;;;5042155;28;21711;-70
2022/07/12 05:21:34;;;;;;;5.53;3.10;;;17.80;99.90;;;;;;5043135;28;20447;-70
2022/07/12 05:24:02;;;;;;;4.93;3.37;;;18.20;99.90;;;;;;5037313;28;20458;-70
2022/07/12 05:26:28;;;;;;;3.63;3.30;;;18.40;99.90;;;;;;5038798;28;20488;-69
2022/07/12 05:28:55;;;;;;;3.73;3.37;;;18.80;99.90;;;;;;5040901;28;20468;-70
2022/07/12 05:31:23;;;;;;;4.37;3.97;;;19.20;99.90;;;;;;5035540;28;20551;-70
2022/07/12 05:33:50;;;;;;;6.23;3.40;;;19.60;99.90;;;;;;5042933;28;20564;-70
2022/07/12 05:36:17;;;;;;;2.60;2.40;;;19.70;99.90;;;;;;5036003;28;20548;-70
2022/07/12 05:38:45;;;;;;;3.23;2.70;;;19.60;99.90;;;;;;5039165;28;20458;-70
2022/07/12 05:41:12;;;;;;;2.60;2.40;;;19.80;99.90;;;;;;5035174;28;20523;-70
2022/07/12 05:43:39;;;;;;;3.93;3.50;;;19.90;99.90;;;;;;5045327;28;20440;-70
2022/07/12 05:46:06;;;;;;;7.90;3.50;;;20.00;99.90;;;;;;5040027;28;20467;-70
2022/07/12 05:48:33;;;;;;;3.10;2.90;;;20.10;99.90;;;;;;5040977;28;20534;-70
2022/07/12 05:53:21;;;;;;;2.93;2.73;;;20.40;99.90;;;;;;5041650;28;20921;-70
2022/07/12 05:53:47;;;;;;;7.90;3.70;;;20.60;99.90;;;;;;5042432;28;21260;-70
2022/07/12 05:56:14;;;;;;;4.33;3.27;;;20.90;99.90;;;;;;5034038;28;20495;-70
2022/07/12 05:58:42;;;;;;;6.67;5.37;;;21.70;99.90;;;;;;5039694;28;20451;-70
2022/07/12 06:01:09;;;;;;;6.33;5.00;;;21.60;99.90;;;;;;5049798;28;20444;-71
2022/07/12 06:03:36;;;;;;;7.60;5.07;;;21.30;99.90;;;;;;5040993;28;20612;-70
2022/07/12 06:06:02;;;;;;;5.83;5.20;;;21.60;99.90;;;;;;5043793;28;20482;-71
2022/07/12 06:08:29;;;;;;;11.90;4.47;;;21.60;99.90;;;;;;5044220;28;20468;-70
2022/07/12 06:10:57;;;;;;;6.13;4.10;;;21.20;99.90;;;;;;5042150;28;20845;-70
2022/07/12 06:13:24;;;;;;;6.83;4.60;;;21.40;99.90;;;;;;5037767;28;20460;-70
2022/07/12 06:15:51;;;;;;;8.83;5.10;;;21.40;99.90;;;;;;5040282;28;20480;-70
2022/07/12 06:18:18;;;;;;;7.70;5.87;;;21.70;99.90;;;;;;5042388;28;20535;-71
2022/07/12 06:20:45;;;;;;;5.37;4.53;;;22.00;99.90;;;;;;5051318;28;20462;-71
2022/07/12 06:23:12;;;;;;;6.67;5.30;;;22.30;99.90;;;;;;5042235;28;20966;-70
2022/07/12 06:25:39;;;;;;;5.83;4.20;;;22.00;99.90;;;;;;5036813;28;20480;-71
2022/07/12 06:28:07;;;;;;;6.40;4.70;;;22.40;99.90;;;;;;5041611;28;20460;-71
2022/07/12 06:30:34;;;;;;;5.63;4.70;;;22.90;99.90;;;;;;5041162;28;20460;-71
2022/07/12 06:33:01;;;;;;;6.73;5.00;;;23.30;99.90;;;;;;5044620;28;20452;-71
2022/07/12 06:35:28;;;;;;;7.53;5.80;;;23.60;99.90;;;;;;5040762;28;20484;-71
2022/07/12 06:37:55;;;;;;;7.57;4.77;;;24.20;99.90;;;;;;5047591;28;20444;-68
2022/07/12 06:40:22;;;;;;;4.80;4.13;;;24.80;99.90;;;;;;5038136;28;20561;-71
2022/07/12 06:42:50;;;;;;;5.07;4.57;;;25.20;99.90;;;;;;5041076;28;20463;-70
2022/07/12 06:45:18;;;;;;;4.33;3.93;;;25.40;99.90;;;;;;5046045;28;20471;-70
2022/07/12 06:47:46;;;;;;;4.77;4.20;;;25.40;99.90;;;;;;5038228;28;21742;-70
2022/07/12 06:50:12;;;;;;;4.37;3.97;;;25.40;99.90;;;;;;5033547;28;20460;-70
2022/07/12 06:52:39;;;;;;;4.53;3.60;;;24.30;99.90;;;;;;5042482;28;20466;-70
2022/07/12 06:55:07;;;;;;;5.10;4.70;;;24.80;99.90;;;;;;5045000;28;20509;-70
2022/07/12 06:57:34;;;;;;;5.23;4.10;;;25.10;99.90;;;;;;5042446;28;20494;-70
2022/07/12 07:00:03;;;;;;;13.33;8.97;;;25.50;99.90;;;;;;5039110;28;20474;-71
2022/07/12 07:02:31;;;;;;;4.77;4.20;;;25.80;99.90;;;;;;5040470;28;20468;-71
2022/07/12 07:04:58;;;;;;;13.23;4.77;;;26.30;99.90;;;;;;5035024;28;20482;-70
2022/07/12 07:07:25;;;;;;;10.60;3.70;;;26.70;99.90;;;;;;5040045;28;20467;-70
2022/07/12 07:09:51;;;;;;;4.70;4.30;;;26.90;99.90;;;;;;5041582;28;20464;-69
2022/07/12 07:12:18;;;;;;;5.13;3.93;;;27.20;99.90;;;;;;5039286;28;20488;-70
2022/07/12 07:14:45;;;;;;;4.40;4.00;;;27.30;99.90;;;;;;5043209;28;21046;-70
2022/07/12 07:17:12;;;;;;;3.83;2.90;;;27.10;99.90;;;;;;5043125;28;20466;-70
2022/07/12 07:19:40;;;;;;;4.33;3.53;;;27.20;99.90;;;;;;5042113;28;20467;-71
2022/07/12 07:22:07;;;;;;;4.50;3.70;;;27.20;99.90;;;;;;5042102;28;21012;-71
2022/07/12 07:24:34;;;;;;;6.77;4.17;;;27.70;99.90;;;;;;5041065;28;20476;-70
2022/07/12 07:27:01;;;;;;;4.03;3.73;;;27.00;99.90;;;;;;5040839;28;20825;-70
2022/07/12 07:32:12;;;;;;;4.43;4.03;;;26.70;99.90;;;;;;5042156;28;20587;-70
2022/07/12 07:34:41;;;;;;;3.67;3.37;;;26.90;99.90;;;;;;5043157;28;20487;-70
2022/07/12 07:37:09;;;;;;;4.17;3.53;;;27.00;99.90;;;;;;5047192;28;20842;-70
2022/07/12 07:39:36;;;;;;;3.63;3.30;;;28.10;99.90;;;;;;5041668;28;20462;-71
2022/07/12 07:42:03;;;;;;;4.10;3.63;;;29.10;99.90;;;;;;5035055;28;20472;-71
2022/07/12 07:44:30;;;;;;;3.17;2.50;;;29.10;99.90;;;;;;5040094;28;20483;-71
2022/07/12 07:46:56;;;;;;;3.60;3.10;;;29.40;99.90;;;;;;5047324;23;20496;-72
2022/07/12 07:49:23;;;;;;;2.37;2.17;;;28.80;99.90;;;;;;5028922;28;20928;-72
2022/07/12 07:51:52;;;;;;;2.97;2.67;;;28.70;99.90;;;;;;5028179;28;20482;-72
2022/07/12 07:54:19;;;;;;;3.00;2.70;;;29.20;99.90;;;;;;5019598;28;20505;-72
2022/07/12 07:56:45;;;;;;;3.00;2.70;;;29.10;99.90;;;;;;5018042;28;20500;-73
2022/07/12 07:59:12;;;;;;;3.90;3.50;;;28.80;99.90;;;;;;5003869;28;20472;-73
2022/07/12 08:01:46;;;;;;;3.40;2.20;;;28.60;99.90;;;;;;5006360;28;20505;-72
2022/07/12 08:04:13;;;;;;;3.03;2.33;;;28.80;99.90;;;;;;5007061;28;20445;-73
2022/07/12 08:06:41;;;;;;;3.10;2.90;;;28.80;99.90;;;;;;5005120;28;21121;-73
2022/07/12 08:09:09;;;;;;;3.23;2.77;;;29.00;99.90;;;;;;5008946;28;20454;-73
2022/07/12 08:11:37;;;;;;;2.77;2.57;;;29.60;99.90;;;;;;5002503;28;20626;-72
2022/07/12 08:14:04;;;;;;;3.00;2.80;;;30.00;99.90;;;;;;5000294;28;20562;-73
2022/07/12 08:16:31;;;;;;;3.13;2.83;;;29.50;99.90;;;;;;5002328;28;20510;-73
2022/07/12 08:18:59;;;;;;;2.50;2.20;;;28.90;99.90;;;;;;5000901;28;20462;-73
2022/07/12 08:21:26;;;;;;;2.87;2.67;;;28.90;99.90;;;;;;5008371;28;20465;-72
2022/07/12 08:23:54;;;;;;;3.47;2.50;;;29.00;99.90;;;;;;5007257;28;20457;-73
2022/07/12 08:26:22;;;;;;;2.30;2.10;;;28.80;99.90;;;;;;5006117;28;20647;-73
2022/07/12 08:28:49;;;;;;;3.60;3.30;;;29.50;99.90;;;;;;5003019;28;20525;-73
2022/07/12 08:31:17;;;;;;;2.80;2.60;;;29.50;99.90;;;;;;5003512;28;20450;-72
2022/07/12 08:33:44;;;;;;;2.43;2.00;;;29.80;99.90;;;;;;5006859;28;20485;-73
2022/07/12 08:36:11;;;;;;;3.20;2.70;;;30.20;99.90;;;;;;5007952;28;20482;-73
2022/07/12 08:38:38;;;;;;;3.60;2.80;;;31.00;99.90;;;;;;5007882;28;20456;-73
2022/07/12 08:41:06;;;;;;;2.70;2.17;;;31.20;99.90;;;;;;4991815;28;20930;-72
2022/07/12 08:43:36;;;;;;;2.70;2.50;;;31.50;99.90;;;;;;5006500;28;20463;-73
2022/07/12 08:46:04;;;;;;;3.13;2.43;;;30.70;99.90;;;;;;5002572;28;20949;-74
2022/07/12 08:48:36;;;;;;;5.77;2.97;;;30.90;99.90;;;;;;5009829;28;20489;-74
2022/07/12 08:51:06;;;;;;;4.43;1.70;;;30.90;99.90;;;;;;5005486;28;20979;-73
2022/07/12 08:53:33;;;;;;;2.30;2.00;;;31.50;99.90;;;;;;5003429;28;20500;-74
2022/07/12 08:56:00;;;;;;;7.93;4.57;;;32.20;99.90;;;;;;5001259;28;20590;-73
2022/07/12 08:58:28;;;;;;;2.37;2.13;;;32.20;99.90;;;;;;5006225;28;20492;-72
2022/07/12 09:00:57;;;;;;;7.03;2.70;;;32.40;99.90;;;;;;5005966;28;20460;-72
2022/07/12 09:03:26;;;;;;;4.77;2.30;;;32.80;99.90;;;;;;5000633;28;20497;-74
2022/07/12 09:05:57;;;;;;;1.90;1.57;;;32.90;99.90;;;;;;5004349;28;20515;-74
2022/07/12 09:08:30;;;;;;;2.60;1.70;;;33.30;97.40;;;;;;5005233;28;20491;-74
2022/07/12 09:11:00;;;;;;;2.80;1.60;;;33.10;97.40;;;;;;4998116;28;20470;-72
2022/07/12 09:13:52;;;;;;;2.27;1.90;;;33.60;96.20;;;;;;4988294;28;20463;-72
2022/07/12 09:16:22;;;;;;;2.00;1.90;;;33.50;94.60;;;;;;4999843;28;20491;-73
2022/07/12 09:18:50;;;;;;;2.70;1.50;;;33.20;95.30;;;;;;5000907;28;20472;-73
2022/07/12 09:21:27;;;;;;;2.63;1.90;;;33.10;96.60;;;;;;5007349;28;20915;-73
2022/07/12 09:23:56;;;;;;;2.03;1.83;;;33.00;94.70;;;;;;5004162;28;20548;-73
2022/07/12 09:26:23;;;;;;;2.30;1.90;;;32.60;95.20;;;;;;5006381;28;20457;-73
2022/07/12 09:28:51;;;;;;;4.33;2.00;;;32.30;95.00;;;;;;5005961;28;20467;-74
2022/07/12 09:31:20;;;;;;;2.97;2.77;;;32.70;94.60;;;;;;4996419;28;20461;-72
2022/07/12 09:36:57;;;;;;;1.50;1.40;;;33.50;93.40;;;;;;5008072;28;20473;-73
2022/07/12 09:39:25;;;;;;;1.83;1.30;;;33.70;91.80;;;;;;5002845;28;20459;-73
2022/07/12 09:41:54;;;;;;;2.73;1.20;;;33.80;91.20;;;;;;4997540;28;20469;-72
2022/07/12 09:44:21;;;;;;;1.53;1.30;;;33.80;91.40;;;;;;4998866;28;20585;-73
2022/07/12 09:46:52;;;;;;;5.60;1.27;;;33.80;90.60;;;;;;5004396;28;20591;-73
2022/07/12 09:49:25;;;;;;;2.60;1.53;;;34.40;90.50;;;;;;4999151;28;20462;-73
2022/07/12 09:51:55;;;;;;;3.90;1.33;;;34.80;86.60;;;;;;5007546;28;21026;-73
2022/07/12 09:54:27;;;;;;;1.30;1.20;;;34.80;86.70;;;;;;5004532;28;20460;-73
2022/07/12 09:56:55;;;;;;;1.80;1.20;;;35.00;84.00;;;;;;5005150;28;20575;-74
2022/07/12 09:59:25;;;;;;;2.00;1.10;;;35.00;83.30;;;;;;4998522;28;20469;-74
2022/07/12 10:01:55;;;;;;;1.47;1.10;;;35.20;83.80;;;;;;5002901;28;20885;-74
2022/07/12 10:04:23;;;;;;;1.40;1.10;;;34.90;83.40;;;;;;5005814;28;20456;-74
2022/07/12 10:06:51;;;;;;;2.70;1.40;;;35.50;82.50;;;;;;5003567;28;20538;-74
2022/07/12 10:09:18;;;;;;;2.23;1.20;;;35.60;79.90;;;;;;5004711;28;20633;-74
2022/07/12 10:11:46;;;;;;;1.73;1.10;;;34.80;79.40;;;;;;5001564;28;20469;-74
2022/07/12 10:14:13;;;;;;;1.50;1.20;;;35.30;78.80;;;;;;5004494;28;20497;-74
2022/07/12 10:16:43;;;;;;;1.17;0.97;;;35.70;78.10;;;;;;5004328;28;20489;-74
2022/07/12 10:19:31;;;;;;;1.30;1.00;;;35.10;77.10;;;;;;5006288;28;20454;-74
2022/07/12 10:21:59;;;;;;;2.20;1.10;;;34.80;75.80;;;;;;5006828;28;20492;-73
2022/07/12 10:24:57;;;;;;;1.80;1.60;;;35.30;74.90;;;;;;4997762;28;20463;-73
2022/07/12 10:27:37;;;;;;;6.27;1.17;;;34.90;75.70;;;;;;5002449;28;20563;-73
2022/07/12 10:30:23;;;;;;;2.60;1.30;;;34.20;76.00;;;;;;4993307;28;20469;-72
2022/07/12 10:32:57;;;;;;;3.33;1.40;;;34.00;75.20;;;;;;5004556;28;20472;-73
2022/07/12 10:35:29;;;;;;;1.20;0.97;;;33.60;78.10;;;;;;5005413;28;20530;-73
2022/07/12 10:38:17;;;;;;;1.20;1.00;;;35.60;75.50;;;;;;5006452;28;20924;-74
2022/07/12 10:40:44;;;;;;;1.97;1.00;;;36.30;71.50;;;;;;5009421;28;21222;-74
2022/07/12 10:43:21;;;;;;;1.40;1.10;;;35.80;71.40;;;;;;5010181;28;20481;-74
2022/07/12 10:45:49;;;;;;;1.87;1.30;;;36.40;71.20;;;;;;5011691;28;20470;-74
2022/07/12 10:48:24;;;;;;;1.67;1.50;;;35.80;70.10;;;;;;5008254;28;20481;-73
2022/07/12 10:50:57;;;;;;;1.30;1.03;;;35.80;69.80;;;;;;5000598;28;20465;-74
2022/07/12 10:53:26;;;;;;;1.50;1.13;;;35.60;71.30;;;;;;5009155;28;20545;-73
2022/07/12 10:56:08;;;;;;;1.50;1.10;;;35.50;71.80;;;;;;5004793;28;20592;-74
2022/07/12 10:58:37;;;;;;;1.43;1.20;;;34.80;72.70;;;;;;5006757;28;20465;-74
2022/07/12 11:01:06;;;;;;;1.80;1.07;;;35.40;69.80;;;;;;5005363;28;20464;-74
2022/07/12 11:03:33;;;;;;;1.83;1.10;;;34.90;72.20;;;;;;5010137;28;20537;-73
2022/07/12 11:06:07;;;;;;;1.40;1.10;;;35.40;70.70;;;;;;5003470;28;20996;-73
2022/07/12 11:08:57;;;;;;;1.30;1.00;;;35.60;68.60;;;;;;5012516;28;20446;-73
2022/07/12 11:11:26;;;;;;;2.57;1.30;;;35.80;67.80;;;;;;5004918;28;20516;-73
2022/07/12 11:13:54;;;;;;;3.93;1.00;;;36.00;71.00;;;;;;5006570;28;20464;-74
2022/07/12 11:16:22;;;;;;;3.07;1.33;;;36.10;67.30;;;;;;5009517;28;20494;-73
2022/07/12 11:18:49;;;;;;;3.53;1.47;;;36.00;69.30;;;;;;5011558;28;20471;-73
2022/07/12 11:21:17;;;;;;;5.80;1.30;;;36.10;69.20;;;;;;5007985;28;20453;-73
2022/07/12 11:23:44;;;;;;;3.20;1.13;;;36.30;68.20;;;;;;5008142;28;20963;-74
2022/07/12 11:26:13;;;;;;;1.97;1.10;;;36.40;66.00;;;;;;5004611;28;20540;-73
2022/07/12 11:28:41;;;;;;;2.33;0.80;;;36.90;63.80;;;;;;5010190;28;21132;-73
2022/07/12 11:31:09;;;;;;;1.80;1.30;;;37.40;63.40;;;;;;5010122;28;20477;-73
2022/07/12 11:33:38;;;;;;;1.40;1.20;;;37.40;63.40;;;;;;5019899;28;21112;-73
2022/07/12 11:36:07;;;;;;;1.30;1.00;;;37.80;62.80;;;;;;5010517;28;20966;-73
2022/07/12 11:38:37;;;;;;;3.30;1.10;;;38.20;60.20;;;;;;5006374;28;20661;-74
2022/07/12 11:41:05;;;;;;;1.43;1.20;;;38.20;60.30;;;;;;5004633;28;20457;-73
2022/07/12 11:43:34;;;;;;;4.80;1.17;;;37.30;60.40;;;;;;5007335;28;20548;-72
2022/07/12 11:46:01;;;;;;;2.03;1.17;;;35.80;61.90;;;;;;5004132;28;20460;-73
2022/07/12 11:48:29;;;;;;;1.50;0.93;;;35.00;63.20;;;;;;5008279;28;20470;-73
2022/07/12 11:50:56;;;;;;;1.40;1.30;;;35.30;63.90;;;;;;5002015;28;20931;-73
2022/07/12 11:53:25;;;;;;;1.70;1.60;;;36.00;63.30;;;;;;5003379;28;20469;-73
2022/07/12 11:55:55;;;;;;;1.60;1.10;;;36.80;62.60;;;;;;4996418;28;20646;-74
2022/07/12 11:58:22;;;;;;;5.93;1.20;;;36.70;58.70;;;;;;5004072;28;20484;-73
2022/07/12 12:00:50;;;;;;;2.50;1.40;;;36.70;59.70;;;;;;5008442;28;20573;-73
2022/07/12 12:03:18;;;;;;;1.93;1.30;;;37.10;57.60;;;;;;5001870;28;20458;-74
2022/07/12 12:05:47;;;;;;;1.10;1.00;;;36.70;57.30;;;;;;5012137;28;20483;-73
2022/07/12 12:08:16;;;;;;;1.20;0.90;;;36.70;56.50;;;;;;5006407;28;20598;-75
2022/07/12 12:10:44;;;;;;;2.43;1.10;;;37.00;55.20;;;;;;5004396;28;20516;-76
2022/07/12 12:13:17;;;;;;;1.77;0.90;;;36.20;56.80;;;;;;5003283;28;20465;-73
2022/07/12 12:15:51;;;;;;;2.03;0.90;;;35.80;57.70;;;;;;5008868;28;20486;-73
2022/07/12 12:18:28;;;;;;;1.30;1.00;;;36.80;56.10;;;;;;5008593;28;20469;-74
2022/07/12 12:20:58;;;;;;;1.37;1.00;;;37.40;54.00;;;;;;5006621;28;20468;-73
2022/07/12 12:23:25;;;;;;;1.30;0.90;;;37.20;53.30;;;;;;5002578;28;20449;-73
2022/07/12 12:25:52;;;;;;;1.20;0.93;;;37.40;54.20;;;;;;5009024;28;20458;-73
2022/07/12 12:28:21;;;;;;;1.00;0.70;;;37.90;54.30;;;;;;5003693;28;20517;-73
2022/07/12 12:30:52;;;;;;;1.53;1.10;;;37.90;53.30;;;;;;4998801;28;20471;-73
2022/07/12 12:33:34;;;;;;;1.30;1.00;;;38.10;53.50;;;;;;5003440;28;20462;-73
2022/07/12 12:36:20;;;;;;;1.93;1.10;;;37.70;52.90;;;;;;5005137;28;21155;-73
2022/07/12 12:38:50;;;;;;;1.57;1.07;;;38.30;53.20;;;;;;5005768;28;20457;-72
2022/07/12 12:41:17;;;;;;;1.13;0.90;;;37.70;52.80;;;;;;5005681;28;20466;-72
2022/07/12 12:43:48;;;;;;;5.20;1.10;;;38.00;53.40;;;;;;5008914;28;20512;-73
2022/07/12 12:46:15;;;;;;;1.20;1.10;;;38.10;53.40;;;;;;5000001;28;20457;-74
2022/07/12 12:48:48;;;;;;;1.20;0.90;;;37.60;54.20;;;;;;5004827;28;20485;-73
2022/07/12 12:51:16;;;;;;;4.43;1.20;;;38.20;53.60;;;;;;4998601;28;20924;-73
2022/07/12 12:53:44;;;;;;;2.30;1.10;;;38.20;54.50;;;;;;5003027;28;20516;-72
2022/07/12 12:56:13;;;;;;;1.40;1.17;;;38.40;54.40;;;;;;5002645;28;20483;-72
2022/07/12 12:58:51;;;;;;;2.63;1.20;;;38.20;53.70;;;;;;4987923;28;20881;-73
2022/07/12 13:01:18;;;;;;;1.60;1.27;;;37.70;53.60;;;;;;4986483;28;20461;-72
2022/07/12 13:03:45;;;;;;;3.70;1.50;;;38.30;53.30;;;;;;4995073;28;20464;-72